Time;durP1;ratioP1;P1;durP2;ratioP2;P2;SDS_P1;SDS_P2;PMS_P1;PMS_P2;Temp;Humidity;BMP_temperature;BMP_pressure;BME280_temperature;BME280_humidity;BME280_pressure;Samples;Min_cycle;Max_cycle;Signal;HPM_P1;HPM_P2
2022/03/16 00:00:11;;;;;;;45.92;26.67;;;11.60;99.90;;;;;;5041783;28;20366;-73
2022/03/16 00:02:37;;;;;;;44.83;26.45;;;11.90;99.90;;;;;;5004286;28;20045;-73
2022/03/16 00:05:03;;;;;;;47.28;27.02;;;11.30;99.90;;;;;;5026011;28;20040;-73
2022/03/16 00:07:29;;;;;;;47.42;25.02;;;11.70;99.90;;;;;;5027762;28;20060;-73
2022/03/16 00:09:54;;;;;;;46.92;26.92;;;11.80;99.90;;;;;;5032097;28;20319;-73
2022/03/16 00:12:20;;;;;;;45.45;26.40;;;12.00;99.90;;;;;;5046549;28;20045;-73
2022/03/16 00:14:46;;;;;;;46.88;26.35;;;12.00;99.90;;;;;;5062927;28;20051;-72
2022/03/16 00:17:12;;;;;;;46.72;26.75;;;11.60;99.90;;;;;;5063821;28;20068;-73
2022/03/16 00:19:41;;;;;;;46.35;25.63;;;11.70;99.90;;;;;;5047472;28;20208;-73
2022/03/16 00:22:07;;;;;;;47.17;27.88;;;11.80;99.90;;;;;;5030325;28;20211;-74
2022/03/16 00:24:33;;;;;;;50.58;28.67;;;12.10;99.90;;;;;;5078050;28;20040;-73
2022/03/16 00:26:59;;;;;;;50.83;28.73;;;11.90;99.90;;;;;;5047624;28;20104;-74
2022/03/16 00:29:32;;;;;;;54.45;28.33;;;11.70;99.90;;;;;;5047693;28;20388;-73
2022/03/16 00:32:09;;;;;;;49.67;29.00;;;12.20;99.90;;;;;;5057844;28;20103;-74
2022/03/16 00:34:38;;;;;;;48.08;28.10;;;12.20;99.90;;;;;;5050028;28;20036;-73
2022/03/16 00:37:04;;;;;;;51.40;29.75;;;12.40;99.90;;;;;;5024658;28;20048;-75
2022/03/16 00:39:29;;;;;;;45.85;25.60;;;11.80;99.90;;;;;;5068992;28;20324;-75
2022/03/16 00:41:56;;;;;;;47.13;26.95;;;12.30;99.90;;;;;;5047609;28;20033;-74
2022/03/16 00:44:22;;;;;;;45.30;26.05;;;12.20;99.90;;;;;;5064740;28;20041;-74
2022/03/16 00:46:48;;;;;;;47.83;28.67;;;11.80;99.90;;;;;;5043437;28;20032;-74
2022/03/16 00:49:13;;;;;;;47.28;25.60;;;11.90;99.90;;;;;;5070165;28;20215;-75
2022/03/16 00:51:39;;;;;;;47.95;26.42;;;11.80;99.90;;;;;;5061316;28;20040;-73
2022/03/16 00:54:05;;;;;;;47.70;26.48;;;11.80;99.90;;;;;;5065114;28;20071;-73
2022/03/16 00:56:31;;;;;;;43.05;26.02;;;12.50;99.90;;;;;;5045971;28;20043;-75
2022/03/16 00:58:56;;;;;;;46.60;26.48;;;11.90;99.90;;;;;;5062155;28;20037;-73
2022/03/16 01:01:22;;;;;;;44.78;25.45;;;11.90;99.90;;;;;;5046078;28;20044;-74
2022/03/16 01:03:48;;;;;;;45.33;26.02;;;12.40;99.90;;;;;;5064358;28;20180;-74
2022/03/16 01:06:15;;;;;;;46.88;27.10;;;12.30;99.90;;;;;;5073110;28;20059;-73
2022/03/16 01:08:44;;;;;;;43.92;25.48;;;11.70;99.90;;;;;;5067512;28;20054;-73
2022/03/16 01:11:11;;;;;;;44.72;24.50;;;12.10;99.90;;;;;;5070867;28;20040;-73
2022/03/16 01:13:38;;;;;;;42.97;25.48;;;11.90;99.90;;;;;;5061523;28;20040;-74
2022/03/16 01:16:04;;;;;;;46.38;27.50;;;11.80;99.90;;;;;;5062231;28;20052;-74
2022/03/16 01:18:32;;;;;;;45.20;26.15;;;12.40;99.90;;;;;;5065168;28;20338;-75
2022/03/16 01:20:58;;;;;;;46.05;24.77;;;11.70;99.90;;;;;;5062498;28;20103;-75
2022/03/16 01:23:24;;;;;;;41.22;24.48;;;11.80;99.90;;;;;;5049954;28;20300;-73
2022/03/16 01:25:50;;;;;;;40.25;23.13;;;12.20;99.90;;;;;;5057010;28;20106;-73
2022/03/16 01:28:15;;;;;;;40.85;23.20;;;11.70;99.90;;;;;;5062972;28;20033;-75
2022/03/16 01:30:43;;;;;;;38.83;22.20;;;12.20;99.90;;;;;;5052135;28;20196;-75
2022/03/16 01:33:09;;;;;;;53.53;27.98;;;11.80;99.90;;;;;;5059689;28;20307;-75
2022/03/16 01:35:34;;;;;;;42.40;24.60;;;12.30;99.90;;;;;;5044661;28;20067;-74
2022/03/16 01:38:00;;;;;;;47.92;27.33;;;11.90;99.90;;;;;;5072904;28;20041;-74
2022/03/16 01:40:26;;;;;;;51.28;27.80;;;12.40;99.90;;;;;;5062823;28;20098;-74
2022/03/16 01:42:52;;;;;;;48.03;27.77;;;12.40;99.90;;;;;;5032331;28;20039;-74
2022/03/16 01:45:18;;;;;;;47.05;28.17;;;11.80;99.90;;;;;;5068576;28;20048;-74
2022/03/16 01:47:43;;;;;;;52.17;28.25;;;12.10;99.90;;;;;;5063785;28;20028;-73
2022/03/16 01:50:10;;;;;;;47.78;27.23;;;11.80;99.90;;;;;;5045960;28;20046;-74
2022/03/16 01:52:38;;;;;;;51.47;29.30;;;11.50;99.90;;;;;;5046642;28;20049;-73
2022/03/16 01:55:05;;;;;;;51.13;27.75;;;11.80;99.90;;;;;;5060018;28;20040;-73
2022/03/16 01:57:35;;;;;;;45.80;25.80;;;12.00;99.90;;;;;;5044079;28;20323;-73
2022/03/16 02:00:07;;;;;;;47.22;25.27;;;11.70;99.90;;;;;;5043698;28;20327;-74
2022/03/16 02:02:34;;;;;;;42.03;24.52;;;11.60;99.90;;;;;;5067093;28;20155;-75
2022/03/16 02:04:59;;;;;;;39.85;23.27;;;11.40;99.90;;;;;;5063284;28;20099;-74
2022/03/16 02:07:25;;;;;;;39.33;22.58;;;11.40;99.90;;;;;;5044210;28;20049;-74
2022/03/16 02:09:53;;;;;;;44.03;25.20;;;11.40;99.90;;;;;;5051399;28;20037;-73
2022/03/16 02:12:19;;;;;;;38.20;22.20;;;11.40;99.90;;;;;;5063272;28;20044;-75
2022/03/16 02:14:44;;;;;;;47.20;26.50;;;11.80;99.90;;;;;;5060469;28;20269;-75
2022/03/16 02:17:10;;;;;;;46.38;26.17;;;11.60;99.90;;;;;;5031107;28;20036;-74
2022/03/16 02:19:36;;;;;;;48.50;25.85;;;11.70;99.90;;;;;;5045296;28;20330;-74
2022/03/16 02:22:04;;;;;;;45.10;25.27;;;11.80;99.90;;;;;;5046090;28;20094;-75
2022/03/16 02:24:30;;;;;;;47.70;26.17;;;11.90;99.90;;;;;;5059960;28;20037;-74
2022/03/16 02:26:56;;;;;;;47.95;27.63;;;11.50;99.90;;;;;;5060008;28;20083;-74
2022/03/16 02:29:22;;;;;;;50.25;27.52;;;11.40;99.90;;;;;;5059796;28;20052;-75
2022/03/16 02:31:48;;;;;;;46.47;26.92;;;12.20;99.90;;;;;;5061435;28;20086;-74
2022/03/16 02:34:14;;;;;;;46.92;26.35;;;12.10;99.90;;;;;;5061281;28;20048;-73
2022/03/16 02:36:40;;;;;;;50.78;28.85;;;11.70;99.90;;;;;;5046491;28;20049;-72
2022/03/16 02:39:37;;;;;;;49.10;28.10;;;12.00;99.90;;;;;;5058970;28;20136;-73
2022/03/16 02:42:04;;;;;;;49.88;27.42;;;12.00;99.90;;;;;;5044081;28;20102;-73
2022/03/16 02:44:30;;;;;;;55.85;28.42;;;12.00;99.90;;;;;;5060565;28;20222;-74
2022/03/16 02:46:56;;;;;;;53.83;27.80;;;11.60;99.90;;;;;;5024367;28;20059;-74
2022/03/16 02:49:22;;;;;;;57.90;30.27;;;11.90;99.90;;;;;;5054403;28;20071;-74
2022/03/16 02:51:48;;;;;;;46.55;26.35;;;12.10;99.90;;;;;;5033852;28;20047;-73
2022/03/16 02:54:13;;;;;;;48.65;26.90;;;11.60;99.90;;;;;;5051399;28;20044;-73
2022/03/16 02:56:39;;;;;;;49.45;27.30;;;11.40;99.90;;;;;;5034201;28;20049;-73
2022/03/16 02:59:05;;;;;;;48.90;28.08;;;11.30;99.90;;;;;;5042457;28;20135;-73
2022/03/16 03:01:31;;;;;;;48.70;26.40;;;11.80;99.90;;;;;;5027823;28;20386;-74
2022/03/16 03:03:57;;;;;;;50.55;27.88;;;11.30;99.90;;;;;;5060757;28;20050;-74
2022/03/16 03:06:22;;;;;;;51.72;28.20;;;11.50;99.90;;;;;;5040758;28;20032;-74
2022/03/16 03:08:48;;;;;;;45.50;27.48;;;11.50;99.90;;;;;;5042598;28;20243;-74
2022/03/16 03:11:14;;;;;;;47.60;27.67;;;11.40;99.90;;;;;;4992753;28;1100044;-74
2022/03/16 03:13:41;;;;;;;46.85;26.30;;;11.50;99.90;;;;;;5063843;28;20188;-74
2022/03/16 03:16:06;;;;;;;41.38;25.52;;;12.10;99.90;;;;;;5048771;28;20189;-74
2022/03/16 03:18:35;;;;;;;36.38;21.13;;;11.20;99.90;;;;;;5070244;28;20029;-74
2022/03/16 03:21:02;;;;;;;41.78;23.17;;;10.70;99.90;;;;;;5060541;28;20346;-73
2022/03/16 03:23:28;;;;;;;38.22;23.20;;;11.10;99.90;;;;;;5044711;28;20094;-73
2022/03/16 03:25:53;;;;;;;36.65;21.92;;;10.70;99.90;;;;;;5063347;28;20309;-73
2022/03/16 03:28:19;;;;;;;34.65;20.55;;;10.90;99.90;;;;;;5034174;28;20036;-75
2022/03/16 03:30:45;;;;;;;39.75;22.95;;;11.00;99.90;;;;;;5043830;28;20040;-73
2022/03/16 03:33:11;;;;;;;38.20;23.45;;;11.10;99.90;;;;;;5043185;28;20398;-73
2022/03/16 03:35:36;;;;;;;36.17;22.23;;;10.80;99.90;;;;;;5061774;28;20045;-73
2022/03/16 03:38:02;;;;;;;41.42;24.08;;;11.10;99.90;;;;;;5056265;28;20037;-73
2022/03/16 03:40:29;;;;;;;38.58;22.95;;;11.20;99.90;;;;;;5047687;28;20033;-73
2022/03/16 03:42:55;;;;;;;42.15;23.35;;;10.70;99.90;;;;;;5066761;28;20090;-74
2022/03/16 03:45:21;;;;;;;46.20;24.42;;;10.80;99.90;;;;;;5046757;28;20270;-74
2022/03/16 03:47:46;;;;;;;49.75;26.40;;;10.90;99.90;;;;;;5070804;28;20033;-73
2022/03/16 03:50:12;;;;;;;47.20;25.77;;;11.40;99.90;;;;;;5055748;28;20068;-74
2022/03/16 03:52:38;;;;;;;43.42;25.15;;;10.90;99.90;;;;;;5052641;28;20274;-74
2022/03/16 03:55:04;;;;;;;43.67;25.67;;;11.40;99.90;;;;;;5079799;28;20043;-73
2022/03/16 03:57:30;;;;;;;48.08;27.83;;;11.70;99.90;;;;;;5044931;28;20055;-73
2022/03/16 04:00:37;;;;;;;49.60;27.60;;;11.20;99.90;;;;;;5067049;28;20044;-74
2022/03/16 04:03:09;;;;;;;46.25;22.85;;;11.20;99.90;;;;;;5052257;28;20036;-74
2022/03/16 04:05:35;;;;;;;48.80;26.17;;;11.30;99.90;;;;;;5076190;28;20297;-74
2022/03/16 04:08:00;;;;;;;45.75;24.80;;;11.70;99.90;;;;;;5052115;28;20040;-74
2022/03/16 04:10:26;;;;;;;44.50;25.40;;;11.50;99.90;;;;;;5050787;28;20048;-74
2022/03/16 04:12:52;;;;;;;46.45;24.90;;;11.60;99.90;;;;;;5069969;28;20044;-73
2022/03/16 04:15:20;;;;;;;46.83;27.40;;;11.30;99.90;;;;;;5076516;28;20041;-73
2022/03/16 04:17:47;;;;;;;43.58;25.63;;;11.80;99.90;;;;;;5048458;28;20063;-73
2022/03/16 04:20:15;;;;;;;46.20;25.85;;;11.60;99.90;;;;;;5075721;28;20070;-73
2022/03/16 04:22:41;;;;;;;47.67;24.52;;;11.60;99.90;;;;;;5054568;28;20036;-74
2022/03/16 04:25:07;;;;;;;46.78;24.65;;;11.40;99.90;;;;;;5067043;28;20311;-74
2022/03/16 04:27:33;;;;;;;46.22;23.85;;;11.60;99.90;;;;;;5054632;28;20041;-74
2022/03/16 04:29:58;;;;;;;43.38;24.50;;;11.90;99.90;;;;;;5050697;28;20048;-74
2022/03/16 04:32:24;;;;;;;40.80;22.95;;;11.20;99.90;;;;;;5046116;28;20410;-74
2022/03/16 04:34:50;;;;;;;41.65;24.58;;;11.20;99.90;;;;;;5068713;28;20056;-73
2022/03/16 04:37:16;;;;;;;47.30;24.48;;;11.90;99.90;;;;;;5042027;28;20291;-73
2022/03/16 04:39:41;;;;;;;42.03;23.05;;;11.90;99.90;;;;;;5041032;28;20043;-75
2022/03/16 04:42:07;;;;;;;48.13;25.48;;;12.10;99.90;;;;;;5036034;28;20040;-74
2022/03/16 04:44:33;;;;;;;50.83;26.65;;;11.90;99.90;;;;;;5066474;28;20048;-73
2022/03/16 04:46:59;;;;;;;44.85;25.60;;;11.80;99.90;;;;;;5046696;28;20032;-74
2022/03/16 04:49:24;;;;;;;44.80;25.73;;;11.70;99.90;;;;;;5058384;28;20094;-74
2022/03/16 04:51:50;;;;;;;44.88;25.27;;;11.80;99.90;;;;;;5070658;28;20040;-74
2022/03/16 04:54:16;;;;;;;44.50;25.67;;;12.20;99.90;;;;;;5046683;28;20634;-74
2022/03/16 04:56:43;;;;;;;49.15;25.83;;;12.20;99.90;;;;;;5077302;28;20041;-74
2022/03/16 04:59:08;;;;;;;42.75;24.33;;;11.60;99.90;;;;;;5064918;28;20055;-74
2022/03/16 05:01:34;;;;;;;47.22;26.70;;;12.50;99.90;;;;;;5060966;28;20041;-74
2022/03/16 05:04:00;;;;;;;48.05;27.25;;;12.80;99.90;;;;;;5032230;28;20573;-74
2022/03/16 05:06:26;;;;;;;48.00;26.35;;;12.30;99.90;;;;;;5049212;28;20079;-74
2022/03/16 05:08:52;;;;;;;48.70;26.70;;;12.90;99.90;;;;;;5060298;28;20033;-73
2022/03/16 05:11:20;;;;;;;55.38;29.08;;;13.20;99.90;;;;;;5065203;28;20051;-74
2022/03/16 05:13:46;;;;;;;49.08;26.35;;;12.80;99.90;;;;;;5060571;28;20036;-74
2022/03/16 05:16:12;;;;;;;46.65;25.73;;;12.30;99.90;;;;;;5046799;28;20422;-73
2022/03/16 05:18:40;;;;;;;50.95;28.10;;;12.30;99.90;;;;;;5044886;28;20032;-74
2022/03/16 05:21:09;;;;;;;46.90;27.00;;;12.10;99.90;;;;;;5072797;28;20048;-74
2022/03/16 05:23:35;;;;;;;50.35;27.10;;;12.90;99.90;;;;;;5068078;28;20037;-74
2022/03/16 05:26:07;;;;;;;47.47;25.40;;;12.50;99.90;;;;;;5069570;28;20380;-74
2022/03/16 05:28:42;;;;;;;56.08;27.08;;;12.90;99.90;;;;;;5045713;28;20287;-75
2022/03/16 05:31:07;;;;;;;43.90;26.10;;;12.20;99.90;;;;;;5063335;28;20045;-75
2022/03/16 05:33:33;;;;;;;44.88;25.48;;;12.30;99.90;;;;;;5022923;28;20174;-75
2022/03/16 05:35:59;;;;;;;46.33;27.02;;;12.70;99.90;;;;;;5048706;28;20131;-74
2022/03/16 05:38:25;;;;;;;50.95;26.55;;;13.20;99.90;;;;;;5053617;28;20788;-74
2022/03/16 05:40:50;;;;;;;49.40;25.67;;;13.40;99.90;;;;;;5029939;28;20051;-75
2022/03/16 05:43:16;;;;;;;47.75;27.10;;;12.70;99.90;;;;;;5048283;28;20112;-75
2022/03/16 05:45:42;;;;;;;54.03;28.48;;;13.20;99.90;;;;;;5060115;28;20029;-74
2022/03/16 05:48:07;;;;;;;52.70;28.00;;;13.00;99.90;;;;;;5051912;28;20211;-77
2022/03/16 05:50:33;;;;;;;46.38;26.35;;;13.50;99.90;;;;;;5040919;28;20055;-75
2022/03/16 05:53:02;;;;;;;49.40;24.85;;;12.90;99.90;;;;;;5077436;28;20223;-75
2022/03/16 05:55:28;;;;;;;50.10;28.05;;;12.90;99.90;;;;;;5051867;28;20064;-73
2022/03/16 05:57:54;;;;;;;48.75;27.88;;;13.00;99.90;;;;;;5053976;28;20035;-74
2022/03/16 06:00:21;;;;;;;46.15;27.02;;;13.40;99.90;;;;;;5034706;28;20119;-76
2022/03/16 06:02:48;;;;;;;47.35;27.05;;;12.90;99.90;;;;;;5050236;28;20310;-76
2022/03/16 06:05:15;;;;;;;48.08;27.00;;;12.90;99.90;;;;;;5061999;28;20037;-74
2022/03/16 06:07:42;;;;;;;46.38;26.67;;;12.90;99.90;;;;;;5052700;28;20032;-73
2022/03/16 06:10:14;;;;;;;50.13;26.75;;;13.50;99.90;;;;;;5060401;28;20048;-75
2022/03/16 06:13:03;;;;;;;47.53;26.08;;;13.60;99.90;;;;;;5062877;28;20072;-76
2022/03/16 06:15:36;;;;;;;46.05;26.92;;;13.50;99.90;;;;;;5069968;28;20048;-73
2022/03/16 06:18:02;;;;;;;41.88;24.55;;;13.40;99.90;;;;;;5074927;28;20044;-74
2022/03/16 06:20:28;;;;;;;40.85;24.73;;;12.90;99.90;;;;;;5061887;28;20063;-73
2022/03/16 06:22:54;;;;;;;45.33;26.58;;;13.90;99.90;;;;;;5043821;28;20049;-75
2022/03/16 06:25:22;;;;;;;51.25;28.05;;;12.90;99.90;;;;;;5044399;28;20207;-77
2022/03/16 06:27:48;;;;;;;45.45;25.30;;;13.90;99.90;;;;;;5044986;28;20200;-74
2022/03/16 06:31:07;;;;;;;49.35;27.02;;;14.00;99.90;;;;;;5056504;28;20037;-75
2022/03/16 06:33:34;;;;;;;47.35;25.95;;;13.20;99.90;;;;;;5066456;28;20064;-74
2022/03/16 06:36:02;;;;;;;46.47;25.15;;;14.20;99.90;;;;;;5062394;28;20051;-75
2022/03/16 06:38:27;;;;;;;45.60;26.52;;;13.50;99.90;;;;;;5048990;28;20040;-75
2022/03/16 06:40:53;;;;;;;46.97;27.52;;;13.60;99.90;;;;;;5017846;28;20077;-74
2022/03/16 06:43:21;;;;;;;45.83;26.25;;;13.20;99.90;;;;;;5061283;28;20218;-74
2022/03/16 06:45:47;;;;;;;41.20;23.50;;;13.30;99.90;;;;;;5073996;28;20036;-75
2022/03/16 06:48:12;;;;;;;42.22;24.15;;;13.30;99.90;;;;;;5072514;28;20332;-74
2022/03/16 06:50:38;;;;;;;47.72;26.50;;;14.20;99.90;;;;;;5058131;28;20101;-73
2022/03/16 06:53:04;;;;;;;43.40;25.73;;;13.60;99.90;;;;;;5040959;28;21554;-75
2022/03/16 06:55:29;;;;;;;42.90;25.17;;;14.20;99.90;;;;;;5042804;28;20049;-75
2022/03/16 06:57:55;;;;;;;46.80;27.35;;;14.50;99.90;;;;;;5063263;28;20028;-75
2022/03/16 07:00:21;;;;;;;43.65;26.50;;;13.80;99.90;;;;;;5061715;28;20091;-75
2022/03/16 07:03:00;;;;;;;54.13;28.95;;;13.70;99.90;;;;;;5036783;28;20040;-75
2022/03/16 07:05:34;;;;;;;55.72;29.80;;;14.90;99.90;;;;;;5044357;28;20040;-75
2022/03/16 07:08:02;;;;;;;50.30;27.27;;;15.00;99.90;;;;;;5057960;28;20032;-74
2022/03/16 07:10:29;;;;;;;48.63;26.02;;;13.90;99.90;;;;;;5056856;28;20053;-75
2022/03/16 07:12:55;;;;;;;51.03;28.80;;;14.90;99.90;;;;;;5058840;28;20116;-74
2022/03/16 07:15:21;;;;;;;44.75;27.27;;;14.30;99.90;;;;;;5042328;28;20332;-76
2022/03/16 07:17:47;;;;;;;48.47;28.92;;;14.80;99.90;;;;;;5061725;28;20036;-75
2022/03/16 07:20:13;;;;;;;46.28;27.42;;;15.30;99.90;;;;;;5060365;28;20362;-75
2022/03/16 07:22:39;;;;;;;46.95;27.17;;;14.30;99.90;;;;;;5057812;28;20036;-75
2022/03/16 07:25:09;;;;;;;52.67;25.98;;;14.50;99.90;;;;;;5038412;28;20033;-74
2022/03/16 07:27:44;;;;;;;50.42;28.33;;;14.70;99.90;;;;;;5066334;28;20052;-74
2022/03/16 07:30:10;;;;;;;43.75;26.38;;;14.70;99.90;;;;;;5050111;28;20056;-74
2022/03/16 07:32:39;;;;;;;46.67;27.50;;;14.70;99.90;;;;;;5052776;28;20036;-74
2022/03/16 07:35:51;;;;;;;47.17;28.35;;;14.50;99.90;;;;;;5063342;28;20033;-75
2022/03/16 07:38:19;;;;;;;45.78;26.80;;;14.60;99.90;;;;;;5053831;28;21086;-74
2022/03/16 07:40:46;;;;;;;44.88;27.40;;;14.80;99.90;;;;;;5062152;28;20036;-75
2022/03/16 07:43:11;;;;;;;45.58;26.85;;;14.90;99.90;;;;;;5076356;28;20083;-74
2022/03/16 07:45:37;;;;;;;46.95;27.30;;;15.90;99.90;;;;;;5047317;28;20056;-75
2022/03/16 07:48:04;;;;;;;41.42;26.50;;;15.80;99.90;;;;;;5066648;28;20035;-75
2022/03/16 07:50:30;;;;;;;45.80;26.50;;;15.90;99.90;;;;;;5072062;28;20269;-74
2022/03/16 07:52:56;;;;;;;44.28;26.20;;;16.10;99.90;;;;;;5063858;28;20052;-73
2022/03/16 07:55:21;;;;;;;43.92;26.23;;;15.30;99.90;;;;;;5014065;28;20064;-74
2022/03/16 07:57:47;;;;;;;41.65;26.33;;;16.20;99.90;;;;;;5067088;28;20041;-75
2022/03/16 08:00:14;;;;;;;42.58;24.30;;;15.40;99.90;;;;;;5053002;28;20274;-74
2022/03/16 08:02:40;;;;;;;44.47;25.55;;;14.80;99.90;;;;;;5068597;28;20060;-74
2022/03/16 08:05:07;;;;;;;43.25;26.08;;;16.20;99.90;;;;;;5067530;28;20044;-73
2022/03/16 08:07:33;;;;;;;41.65;24.48;;;16.10;99.90;;;;;;5069039;28;20047;-73
2022/03/16 08:09:59;;;;;;;41.63;24.50;;;16.20;99.90;;;;;;5070416;28;20052;-73
2022/03/16 08:12:25;;;;;;;37.63;21.98;;;16.40;99.90;;;;;;5050449;28;20080;-72
2022/03/16 08:14:51;;;;;;;40.15;23.10;;;16.20;99.90;;;;;;5069405;28;20215;-71
2022/03/16 08:17:18;;;;;;;40.90;24.10;;;16.40;99.90;;;;;;5051516;28;20036;-73
2022/03/16 08:19:44;;;;;;;40.22;24.75;;;16.20;99.90;;;;;;5050127;28;20049;-73
2022/03/16 08:22:10;;;;;;;42.00;24.27;;;16.30;99.90;;;;;;5050508;28;20036;-76
2022/03/16 08:24:36;;;;;;;38.85;23.33;;;15.20;99.90;;;;;;5055543;28;20102;-73
2022/03/16 08:27:03;;;;;;;38.80;20.80;;;15.80;99.90;;;;;;5060988;28;20040;-75
2022/03/16 08:29:29;;;;;;;45.15;24.85;;;15.40;99.90;;;;;;5055811;28;20043;-74
2022/03/16 08:31:57;;;;;;;42.28;24.83;;;15.80;99.90;;;;;;5067151;28;20041;-71
2022/03/16 08:34:23;;;;;;;41.47;24.50;;;16.40;99.90;;;;;;5070719;28;20040;-73
2022/03/16 08:36:51;;;;;;;42.92;24.25;;;16.60;99.90;;;;;;5072046;28;20056;-73
2022/03/16 08:39:16;;;;;;;43.63;24.65;;;15.70;99.90;;;;;;5064173;28;20045;-73
2022/03/16 08:41:42;;;;;;;38.53;23.85;;;15.80;99.90;;;;;;5055265;28;20039;-74
2022/03/16 08:44:08;;;;;;;39.30;24.83;;;15.30;99.90;;;;;;5058640;28;20048;-75
2022/03/16 08:46:34;;;;;;;38.22;21.85;;;15.40;99.90;;;;;;5072982;28;20049;-74
2022/03/16 08:49:00;;;;;;;42.20;25.50;;;15.30;99.90;;;;;;5064208;28;20040;-74
2022/03/16 08:51:25;;;;;;;32.83;20.08;;;16.50;99.90;;;;;;5035673;28;20033;-74
2022/03/16 08:53:51;;;;;;;34.63;21.95;;;15.70;99.90;;;;;;5062055;28;20361;-77
2022/03/16 08:56:17;;;;;;;37.88;22.40;;;16.10;99.90;;;;;;5049560;28;20212;-74
2022/03/16 08:58:43;;;;;;;37.03;24.80;;;15.40;99.90;;;;;;5019014;28;20341;-74
2022/03/16 09:01:09;;;;;;;38.05;21.73;;;15.40;99.90;;;;;;5050991;28;20047;-74
2022/03/16 09:03:35;;;;;;;31.15;20.15;;;15.20;99.90;;;;;;5067126;28;20045;-74
2022/03/16 09:06:01;;;;;;;34.85;20.77;;;15.10;99.90;;;;;;5073248;28;20086;-75
2022/03/16 09:08:27;;;;;;;29.77;18.88;;;14.10;99.90;;;;;;5063434;28;20044;-74
2022/03/16 09:10:53;;;;;;;26.88;14.95;;;13.90;99.90;;;;;;5069286;28;20064;-74
2022/03/16 09:13:20;;;;;;;29.45;20.30;;;13.50;99.90;;;;;;5034937;28;20350;-74
2022/03/16 09:15:46;;;;;;;29.13;18.50;;;13.10;99.90;;;;;;5039454;28;20119;-73
2022/03/16 09:18:11;;;;;;;32.05;22.23;;;13.60;99.90;;;;;;5047560;28;20497;-74
2022/03/16 09:20:38;;;;;;;30.17;18.88;;;13.00;99.90;;;;;;5055875;28;20117;-73
2022/03/16 09:23:04;;;;;;;28.38;19.17;;;12.50;99.90;;;;;;5067854;28;20044;-74
2022/03/16 09:25:29;;;;;;;28.90;17.98;;;12.90;99.90;;;;;;5025726;28;20036;-75
2022/03/16 09:27:55;;;;;;;27.05;18.23;;;12.00;99.90;;;;;;5051451;28;20040;-74
2022/03/16 09:30:23;;;;;;;32.08;21.10;;;12.20;99.90;;;;;;5061640;28;20045;-75
2022/03/16 09:32:49;;;;;;;28.20;19.50;;;11.80;99.90;;;;;;5048348;28;20094;-75
2022/03/16 09:35:14;;;;;;;30.67;18.77;;;12.00;99.90;;;;;;5059951;28;20258;-74
2022/03/16 09:37:40;;;;;;;32.28;21.15;;;11.80;99.90;;;;;;5050590;28;20335;-75
2022/03/16 09:40:07;;;;;;;30.38;19.42;;;12.00;99.90;;;;;;5047516;28;20040;-76
2022/03/16 09:42:33;;;;;;;30.17;19.27;;;11.80;99.90;;;;;;5047244;28;20051;-77
2022/03/16 09:45:03;;;;;;;28.70;19.20;;;12.20;99.90;;;;;;5039674;28;20037;-78
2022/03/16 09:47:30;;;;;;;29.52;19.33;;;12.50;99.90;;;;;;5069865;28;20051;-79
2022/03/16 09:49:56;;;;;;;26.80;17.17;;;11.70;99.90;;;;;;5063539;28;20107;-74
2022/03/16 09:52:26;;;;;;;28.23;17.88;;;11.80;99.90;;;;;;5062367;28;20122;-73
2022/03/16 09:54:53;;;;;;;27.48;17.98;;;12.30;99.90;;;;;;5039609;28;20404;-74
2022/03/16 09:57:20;;;;;;;24.23;15.13;;;12.40;99.90;;;;;;5040274;28;20231;-73
2022/03/16 09:59:45;;;;;;;27.15;15.75;;;12.60;99.90;;;;;;5038377;28;20049;-73
2022/03/16 10:02:16;;;;;;;21.23;14.00;;;12.30;99.90;;;;;;5044443;28;20068;-72
2022/03/16 10:04:42;;;;;;;23.38;14.43;;;12.40;99.90;;;;;;5049554;28;20040;-73
2022/03/16 10:07:08;;;;;;;18.73;13.45;;;12.30;99.90;;;;;;5070351;28;20096;-77
2022/03/16 10:15:17;;;;;;;16.83;11.68;;;12.90;99.90;;;;;;5065668;28;20343;-75
2022/03/16 10:17:47;;;;;;;17.85;12.48;;;12.80;99.90;;;;;;5045470;28;20403;-76
2022/03/16 10:20:37;;;;;;;16.63;12.57;;;12.60;99.90;;;;;;5047912;28;20054;-76
2022/03/16 10:23:14;;;;;;;17.73;11.80;;;12.90;99.90;;;;;;5055731;28;20200;-76
2022/03/16 10:25:47;;;;;;;18.42;11.60;;;12.80;99.90;;;;;;5039233;28;20219;-76
2022/03/16 10:28:17;;;;;;;18.35;11.90;;;12.80;99.90;;;;;;5057912;28;20133;-76
2022/03/16 10:30:57;;;;;;;16.10;9.30;;;12.80;99.90;;;;;;5036429;28;20111;-76
2022/03/16 10:33:47;;;;;;;18.00;11.35;;;12.80;99.90;;;;;;5055894;28;20111;-75
2022/03/16 10:36:15;;;;;;;19.17;12.95;;;12.60;99.90;;;;;;5040521;28;20333;-75
2022/03/16 10:38:45;;;;;;;16.77;12.63;;;12.70;99.90;;;;;;5042245;28;20056;-75
2022/03/16 10:47:16;;;;;;;19.98;11.88;;;13.10;99.90;;;;;;5055203;28;20335;-75
2022/03/16 10:49:43;;;;;;;15.57;10.18;;;12.90;99.90;;;;;;5037777;28;20223;-76
2022/03/16 10:52:20;;;;;;;13.55;9.38;;;12.60;99.90;;;;;;5036703;28;20048;-77
2022/03/16 10:54:48;;;;;;;18.50;12.02;;;12.70;99.90;;;;;;5068707;28;20044;-76
2022/03/16 10:57:15;;;;;;;17.98;11.60;;;12.90;99.90;;;;;;5065761;28;20045;-76
2022/03/16 10:59:43;;;;;;;14.38;9.63;;;12.70;99.90;;;;;;5052709;28;20322;-76
2022/03/16 11:02:13;;;;;;;14.98;11.00;;;12.70;99.90;;;;;;5038328;28;20112;-76
2022/03/16 11:04:44;;;;;;;15.52;11.25;;;13.00;99.90;;;;;;5055846;28;20037;-76
2022/03/16 11:07:10;;;;;;;12.90;7.95;;;13.10;99.90;;;;;;5037530;28;20040;-76
2022/03/16 11:09:37;;;;;;;15.43;10.45;;;13.00;99.90;;;;;;5053977;28;20231;-76
2022/03/16 11:14:49;;;;;;;13.93;10.32;;;13.10;99.90;;;;;;5072662;28;20404;-75
2022/03/16 11:17:16;;;;;;;13.48;8.35;;;13.20;99.90;;;;;;5038657;28;20400;-75
2022/03/16 11:19:48;;;;;;;13.63;9.55;;;13.30;99.90;;;;;;5040861;28;20053;-75
2022/03/16 11:22:32;;;;;;;15.52;10.75;;;13.20;99.90;;;;;;5033789;28;20381;-75
2022/03/16 11:25:02;;;;;;;17.45;11.20;;;13.00;99.90;;;;;;5052349;28;20051;-74
2022/03/16 11:27:42;;;;;;;15.43;11.60;;;13.10;99.90;;;;;;5065774;28;20044;-75
2022/03/16 11:30:25;;;;;;;19.90;12.32;;;13.00;99.90;;;;;;5052946;28;20294;-75
2022/03/16 11:32:57;;;;;;;19.20;12.35;;;13.20;99.90;;;;;;5039800;28;20361;-75
2022/03/16 11:35:30;;;;;;;15.02;9.30;;;13.50;99.90;;;;;;5071006;28;20381;-75
2022/03/16 11:38:03;;;;;;;17.65;10.15;;;13.30;99.90;;;;;;5068734;28;20182;-75
2022/03/16 11:40:30;;;;;;;15.20;10.35;;;13.20;99.90;;;;;;5059127;28;20072;-75
2022/03/16 11:43:06;;;;;;;18.55;10.55;;;13.50;99.90;;;;;;5056939;28;20040;-75
2022/03/16 11:45:41;;;;;;;13.90;9.10;;;13.50;99.90;;;;;;5067189;28;20385;-75
2022/03/16 11:51:09;;;;;;;15.05;10.23;;;13.70;99.90;;;;;;5056476;28;20048;-75
2022/03/16 11:53:47;;;;;;;16.17;11.50;;;14.00;99.90;;;;;;5059007;28;20136;-76
2022/03/16 11:56:20;;;;;;;13.50;8.30;;;14.00;99.90;;;;;;5066203;28;20048;-75
2022/03/16 11:58:51;;;;;;;16.10;10.38;;;13.80;99.90;;;;;;5055823;28;20053;-75
2022/03/16 12:01:29;;;;;;;11.52;7.30;;;13.80;99.90;;;;;;5054586;28;20133;-74
2022/03/16 12:03:58;;;;;;;16.17;10.70;;;13.80;99.90;;;;;;5046691;28;20044;-75
2022/03/16 12:06:29;;;;;;;15.80;10.70;;;13.70;99.90;;;;;;5077591;28;20083;-75
2022/03/16 12:08:58;;;;;;;12.35;8.50;;;14.10;99.90;;;;;;5055100;28;20055;-75
2022/03/16 12:14:09;;;;;;;22.17;7.68;;;13.80;99.90;;;;;;5067635;28;20036;-76
2022/03/16 12:16:42;;;;;;;12.15;8.27;;;13.90;99.90;;;;;;5064304;28;20356;-75
2022/03/16 12:19:29;;;;;;;14.27;9.52;;;13.90;99.90;;;;;;5051881;28;20045;-75
2022/03/16 12:21:57;;;;;;;13.65;9.50;;;13.90;99.90;;;;;;5058795;28;20052;-75
2022/03/16 12:30:05;;;;;;;10.73;7.93;;;14.40;99.90;;;;;;5075935;28;20056;-75
2022/03/16 12:32:36;;;;;;;12.82;9.15;;;14.10;95.80;;;;;;5059511;28;20319;-75
2022/03/16 12:35:06;;;;;;;16.42;8.30;;;14.20;98.90;;;;;;5069345;28;20193;-75
2022/03/16 12:37:32;;;;;;;13.00;8.25;;;14.20;99.10;;;;;;5067564;28;20055;-76
2022/03/16 12:39:58;;;;;;;15.68;8.90;;;14.20;99.00;;;;;;5060428;28;20048;-75
2022/03/16 12:42:33;;;;;;;11.68;8.40;;;14.20;99.90;;;;;;5084833;28;20040;-74
2022/03/16 12:45:06;;;;;;;13.75;8.85;;;14.50;98.70;;;;;;5057765;28;20040;-74
2022/03/16 12:47:41;;;;;;;14.40;8.35;;;14.30;96.40;;;;;;5075643;28;20044;-75
2022/03/16 12:50:12;;;;;;;12.80;9.35;;;14.60;97.00;;;;;;5074704;28;20518;-75
2022/03/16 12:52:40;;;;;;;11.90;7.63;;;14.50;97.40;;;;;;5059153;28;20072;-76
2022/03/16 12:55:11;;;;;;;9.85;6.93;;;14.50;96.00;;;;;;5072753;28;20044;-74
2022/03/16 12:57:38;;;;;;;13.90;8.30;;;14.30;95.30;;;;;;5056434;28;20048;-77